Airfield :
LOGIN :

Register | Disclaimer

   EN    FR    IT 

 










Legend :    VFR   Marginal VFR   IFR   Intensive IFR   Very Intensive IFR
Visi :
Ceiling :
>= 8 km
>= 3000ft
5 to 8 km
1000 to 3000 ft
1500m to 5 km
500 to 1000 ft
800 to 1500m
200 to 500 ft
< 800m
< 200 ft
Symbols :   Thunderstorms  Fog  Heavy snow  Heavy precipitations  Wind > 20 kt
SIGMETs :     Misc.  Thunderstorms  Icing  Turbulence  Mountain Waves  Volcanic Ashes






- Airport Elevation : 42 ft
- IATA code : KGD


UMKK - Khrabrava - Kaliningrad

CURRENT METAR :
  • 201130Z 11004MPS 090V150 9999 OVC009 07/06 Q1024 R06/19//95 NOSIG RMK QFE767/1023

EXPIRED METARs :
  • 201100Z 13005MPS 9999 OVC009 07/06 Q1024 R06/19//95 NOSIG RMK QFE767/1023
  • 201030Z 12005MPS 9999 OVC007 07/06 Q1024 R06/19//95 NOSIG RMK QFE767/1023
  • 201000Z 12006MPS 9000 OVC006 07/06 Q1024 R06/19//95 NOSIG RMK QBB200 OBST OBSC QFE767/1023
  • 200930Z 12006MPS 090V150 8000 OVC006 07/06 Q1024 R06/19//95 NOSIG RMK QBB190 OBST OBSC QFE767/1023
  • 200900Z 12005MPS 090V150 5000 BR OVC005 07/06 Q1025 R06/19//95 NOSIG RMK QBB150 OBST OBSC QFE767/1023

TAF TAF UMKK
Valid from the 20 at 12:00 until the 21 at 12:00 UTC


201059Z 2012/2112 11006G11MPS 9000 BKN008
TEMPO 2012/2018 BKN005
TEMPO 2018/2024 3100 BR BKN003
BECMG 2101/2103 BKN015



MET'MAP, your aeronautical weather chart ! - Copyright ORBIFLY December 2007 - Disclaimer

ORBIFLY MET'MAP TEAM :

Programming & Development : Alexandra Zaïnal
Concept & Development : Baudouin d'Aumeries
Co-Development & Prog : Marc-Olivier Méhu
Technical & hardware support : Manuel Goepfert

Contact : metmap@orbifly.com




SOURCES & CREDITS :

   NOAA